Time;durP1;ratioP1;P1;durP2;ratioP2;P2;SDS_P1;SDS_P2;PMS_P1;PMS_P2;Temp;Humidity;BMP_temperature;BMP_pressure;BME280_temperature;BME280_humidity;BME280_pressure;Samples;Min_cycle;Max_cycle;Signal;HPM_P1;HPM_P2
2021/05/05 00:02:51;;;;;;;5.87;4.12;;;;;;;12.27;52.46;97571.20;2200949;81;21699;-78
2021/05/05 00:05:53;;;;;;;6.05;4.20;;;;;;;12.26;52.53;97572.73;2201088;81;21291;-78
2021/05/05 00:08:55;;;;;;;6.25;4.50;;;;;;;12.23;52.57;97572.12;2200915;80;21643;-78
2021/05/05 00:11:56;;;;;;;8.08;4.58;;;;;;;12.19;52.75;97572.79;2201059;80;21171;-78
2021/05/05 00:14:58;;;;;;;6.33;4.72;;;;;;;12.16;52.79;97567.47;2201062;81;21148;-78
2021/05/05 00:17:59;;;;;;;9.83;5.00;;;;;;;12.13;53.07;97565.27;2200851;80;21143;-78
2021/05/05 00:21:01;;;;;;;9.63;5.45;;;;;;;12.11;53.05;97560.75;2200875;80;21298;-79
2021/05/05 00:24:03;;;;;;;9.70;4.90;;;;;;;12.10;53.20;97557.03;2200973;81;21155;-79
2021/05/05 00:27:04;;;;;;;8.10;4.50;;;;;;;12.08;53.27;97553.83;2200988;81;21699;-78
2021/05/05 00:33:16;;;;;;;6.00;5.08;;;;;;;11.99;53.58;97549.88;2203955;79;21266;-82
2021/05/05 00:36:17;;;;;;;8.58;5.33;;;;;;;11.92;54.00;97543.38;2193942;81;21305;-83
2021/05/05 00:39:19;;;;;;;8.18;5.47;;;;;;;11.86;54.19;97538.47;2193370;81;21209;-82
2021/05/05 00:42:20;;;;;;;11.70;7.05;;;;;;;11.79;54.40;97529.83;2193985;81;21345;-82
2021/05/05 00:45:22;;;;;;;6.20;5.15;;;;;;;11.73;54.52;97529.91;2193966;81;21155;-83
2021/05/05 00:48:23;;;;;;;10.18;5.60;;;;;;;11.67;54.69;97525.00;2193840;81;21598;-82
2021/05/05 00:51:25;;;;;;;7.67;5.12;;;;;;;11.62;55.12;97533.53;2193779;81;21207;-82
2021/05/05 00:54:26;;;;;;;8.23;5.22;;;;;;;11.59;55.12;97529.20;2193628;81;21274;-82
2021/05/05 00:57:28;;;;;;;7.80;5.05;;;;;;;11.55;55.42;97534.08;2193677;81;21139;-82
2021/05/05 01:00:29;;;;;;;8.08;5.42;;;;;;;11.52;55.61;97535.00;2193877;81;21739;-83
2021/05/05 01:03:31;;;;;;;7.45;5.42;;;;;;;11.47;55.72;97526.48;2193653;81;21626;-82
2021/05/05 01:06:34;;;;;;;5.40;4.72;;;;;;;11.45;55.84;97527.72;2194025;81;21333;-82
2021/05/05 01:09:36;;;;;;;8.53;5.70;;;;;;;11.42;56.07;97526.81;2193568;81;21144;-82
2021/05/05 01:12:37;;;;;;;6.25;5.05;;;;;;;11.39;56.22;97528.05;2193986;81;21289;-82
2021/05/05 01:15:39;;;;;;;5.75;5.17;;;;;;;11.37;56.44;97522.23;2193611;81;21128;-82
2021/05/05 01:18:42;;;;;;;5.65;4.55;;;;;;;11.36;56.43;97523.25;2193784;81;21626;-83
2021/05/05 01:21:43;;;;;;;8.40;5.17;;;;;;;11.35;56.50;97522.45;2193599;81;21155;-82
2021/05/05 01:24:45;;;;;;;6.92;5.62;;;;;;;11.36;56.69;97520.62;2193514;81;21599;-83
2021/05/05 01:27:47;;;;;;;6.53;5.10;;;;;;;11.35;56.89;97524.27;2193994;81;21340;-81
2021/05/05 01:30:49;;;;;;;7.65;4.95;;;;;;;11.33;57.06;97523.14;2193597;81;21756;-83
2021/05/05 01:33:51;;;;;;;10.08;5.53;;;;;;;11.33;57.16;97521.03;2187686;81;21329;-83
2021/05/05 01:36:52;;;;;;;9.13;5.90;;;;;;;11.33;57.43;97510.04;2187624;81;21634;-83
2021/05/05 01:39:54;;;;;;;8.15;5.62;;;;;;;11.32;57.64;97515.50;2187644;81;21681;-83
2021/05/05 01:42:56;;;;;;;7.70;5.08;;;;;;;11.30;57.85;97506.55;2187254;81;21147;-83
2021/05/05 01:45:57;;;;;;;7.50;4.90;;;;;;;11.28;57.96;97502.54;2187535;81;21326;-83
2021/05/05 01:48:59;;;;;;;7.42;5.42;;;;;;;11.22;58.02;97509.42;2187921;81;21200;-83
2021/05/05 01:52:00;;;;;;;8.28;5.60;;;;;;;11.14;58.15;97507.05;2187948;81;21179;-83
2021/05/05 01:55:02;;;;;;;8.60;5.72;;;;;;;11.08;58.23;97500.06;2187924;81;21155;-83
2021/05/05 01:58:04;;;;;;;6.53;5.42;;;;;;;11.01;58.35;97504.03;2187758;81;21152;-83
2021/05/05 02:01:07;;;;;;;7.00;5.50;;;;;;;10.96;58.61;97505.66;2187904;81;21147;-83
2021/05/05 02:04:09;;;;;;;7.45;5.28;;;;;;;10.90;58.87;97498.16;2187665;81;21132;-83
2021/05/05 02:07:11;;;;;;;7.25;4.90;;;;;;;10.85;58.93;97488.02;2187647;81;21188;-83
2021/05/05 02:10:13;;;;;;;6.33;5.30;;;;;;;10.80;59.14;97489.97;2187889;81;21610;-83
2021/05/05 02:13:15;;;;;;;7.45;5.58;;;;;;;10.76;59.21;97492.69;2187603;81;21326;-83
2021/05/05 02:16:16;;;;;;;7.78;4.62;;;;;;;10.73;59.30;97495.73;2187599;81;21171;-83
2021/05/05 02:19:18;;;;;;;6.65;4.70;;;;;;;10.70;59.52;97495.66;2187797;81;21188;-83
2021/05/05 02:22:20;;;;;;;7.15;4.62;;;;;;;10.68;59.42;97498.17;2187835;81;21618;-83
2021/05/05 02:25:22;;;;;;;5.33;4.80;;;;;;;10.66;59.54;97492.34;2187785;81;21140;-83
2021/05/05 02:28:24;;;;;;;5.70;4.50;;;;;;;10.64;59.63;97489.14;2187936;81;21156;-83
2021/05/05 02:31:26;;;;;;;9.40;5.10;;;;;;;10.60;59.83;97491.36;2187634;81;21167;-83
2021/05/05 02:34:27;;;;;;;8.70;5.17;;;;;;;10.60;59.90;97499.72;2181727;82;21268;-84
2021/05/05 02:37:29;;;;;;;4.90;4.40;;;;;;;10.60;60.11;97494.48;2181689;82;21111;-83
2021/05/05 02:40:31;;;;;;;4.87;4.40;;;;;;;10.59;60.24;97485.83;2182012;82;21328;-83
2021/05/05 02:43:33;;;;;;;4.72;3.90;;;;;;;10.59;60.33;97487.14;2194470;81;21170;-83
2021/05/05 02:46:35;;;;;;;5.72;4.35;;;;;;;10.61;60.35;97483.02;2194480;81;21304;-83
2021/05/05 02:49:36;;;;;;;6.53;4.67;;;;;;;10.61;60.44;97478.59;2194485;81;21281;-83
2021/05/05 02:52:39;;;;;;;4.42;3.58;;;;;;;10.62;60.64;97484.13;2194768;81;21344;-83
2021/05/05 02:55:41;;;;;;;5.00;4.50;;;;;;;10.64;60.70;97486.02;2194822;81;21183;-83
2021/05/05 02:58:43;;;;;;;6.55;4.40;;;;;;;10.66;60.60;97485.80;2194822;81;21198;-83
2021/05/05 03:01:44;;;;;;;5.97;5.00;;;;;;;10.67;60.65;97488.20;2195108;81;21472;-83
2021/05/05 03:04:46;;;;;;;7.78;5.00;;;;;;;10.70;60.72;97487.00;2194545;81;22315;-83
2021/05/05 03:07:48;;;;;;;10.05;4.87;;;;;;;10.72;60.85;97485.77;2194648;81;21285;-83
2021/05/05 03:10:50;;;;;;;6.50;4.60;;;;;;;10.76;60.93;97480.41;2194785;81;21264;-83
2021/05/05 03:13:52;;;;;;;5.70;4.40;;;;;;;10.83;60.90;97483.79;2194779;81;21304;-83
2021/05/05 03:16:54;;;;;;;6.45;4.75;;;;;;;10.89;60.94;97490.02;2194442;81;21300;-83
2021/05/05 03:19:56;;;;;;;5.67;4.72;;;;;;;10.95;61.14;97487.84;2194457;81;21138;-83
2021/05/05 03:22:57;;;;;;;14.10;5.53;;;;;;;10.99;61.12;97489.55;2194472;81;21144;-83
2021/05/05 03:25:59;;;;;;;7.62;4.97;;;;;;;10.99;61.17;97483.80;2194883;81;21268;-83
2021/05/05 03:29:01;;;;;;;6.25;4.12;;;;;;;11.02;61.15;97491.22;2194691;81;21743;-84
2021/05/05 03:32:03;;;;;;;6.58;4.80;;;;;;;11.01;61.17;97490.94;2195778;81;21315;-83
2021/05/05 03:35:05;;;;;;;5.72;4.90;;;;;;;11.00;61.11;97489.33;2203182;81;21718;-83
2021/05/05 03:38:06;;;;;;;5.42;4.85;;;;;;;11.02;61.38;97483.88;2202834;81;21308;-83
2021/05/05 03:41:08;;;;;;;4.97;4.25;;;;;;;11.02;61.21;97490.42;2203022;81;21276;-83
2021/05/05 03:44:10;;;;;;;9.38;4.87;;;;;;;11.03;61.20;97485.48;2203145;81;21312;-83
2021/05/05 03:47:12;;;;;;;12.63;5.25;;;;;;;11.04;60.88;97491.01;2202802;81;21280;-83
2021/05/05 03:50:14;;;;;;;12.13;7.08;;;;;;;11.08;60.84;97502.69;2202989;81;21316;-83
2021/05/05 03:53:15;;;;;;;8.33;5.35;;;;;;;11.09;60.91;97506.40;2202977;81;21280;-84
2021/05/05 03:56:18;;;;;;;16.17;8.85;;;;;;;11.10;61.15;97508.00;2202818;81;21174;-83
2021/05/05 03:59:19;;;;;;;14.20;8.38;;;;;;;11.10;61.41;97504.58;2203117;81;21292;-84
2021/05/05 04:02:21;;;;;;;15.10;7.05;;;;;;;11.08;61.28;97505.30;2202763;81;21149;-83
2021/05/05 04:05:23;;;;;;;16.05;8.33;;;;;;;11.09;61.44;97505.59;2202884;81;21178;-83
2021/05/05 04:08:25;;;;;;;20.10;9.60;;;;;;;11.11;61.63;97502.25;2202499;81;21189;-84
2021/05/05 04:11:27;;;;;;;13.10;8.75;;;;;;;11.13;61.83;97502.03;2202957;81;21328;-84
2021/05/05 04:14:29;;;;;;;11.60;8.43;;;;;;;11.18;62.12;97508.77;2202860;81;21589;-83
2021/05/05 04:17:32;;;;;;;10.75;6.62;;;;;;;11.24;62.07;97513.14;2202975;81;21292;-84
2021/05/05 04:20:33;;;;;;;8.15;5.75;;;;;;;11.31;62.01;97504.22;2203062;81;21272;-84
2021/05/05 04:23:35;;;;;;;8.93;5.37;;;;;;;11.37;62.03;97496.82;2203242;81;21332;-83
2021/05/05 04:26:37;;;;;;;6.80;5.10;;;;;;;11.44;61.84;97486.30;2203042;81;21185;-83
2021/05/05 04:29:39;;;;;;;8.75;5.08;;;;;;;11.56;61.83;97489.81;2202797;81;21319;-83
2021/05/05 04:32:40;;;;;;;11.48;5.92;;;;;;;11.72;61.89;97494.22;2203058;81;21657;-83
2021/05/05 04:35:43;;;;;;;10.88;5.83;;;;;;;11.87;61.89;97498.11;2203056;81;21319;-83
2021/05/05 04:38:44;;;;;;;8.53;5.62;;;;;;;11.96;62.07;97502.05;2202899;81;21319;-83
2021/05/05 04:41:46;;;;;;;10.03;5.10;;;;;;;12.06;61.85;97502.06;2202860;81;21264;-83
2021/05/05 04:44:48;;;;;;;6.05;4.50;;;;;;;12.19;61.87;97497.48;2202766;81;21197;-83
2021/05/05 04:47:50;;;;;;;5.85;4.90;;;;;;;12.33;61.93;97502.06;2202997;81;21711;-83
2021/05/05 04:50:51;;;;;;;9.88;4.67;;;;;;;12.46;61.82;97501.92;2203071;81;21295;-83
2021/05/05 04:53:53;;;;;;;5.87;4.00;;;;;;;12.65;61.77;97493.50;2203155;81;21316;-83
2021/05/05 04:56:55;;;;;;;8.50;5.05;;;;;;;12.77;61.61;97490.41;2203038;81;21165;-82
2021/05/05 04:59:56;;;;;;;8.83;5.47;;;;;;;13.10;61.56;97483.89;2203197;81;21138;-83
2021/05/05 05:02:58;;;;;;;5.30;4.33;;;;;;;13.65;61.08;97486.28;2202944;81;21284;-83
2021/05/05 05:06:00;;;;;;;4.45;3.95;;;;;;;14.37;59.69;97481.50;2203104;81;21601;-83
2021/05/05 05:09:02;;;;;;;6.08;3.67;;;;;;;15.08;58.97;97476.22;2202803;81;21197;-83
2021/05/05 05:12:04;;;;;;;5.70;4.70;;;;;;;15.69;57.65;97483.02;2203154;81;21161;-83
2021/05/05 05:15:06;;;;;;;4.10;3.72;;;;;;;16.01;57.03;97482.42;2203012;81;21280;-84
2021/05/05 05:18:08;;;;;;;4.28;3.42;;;;;;;16.25;56.13;97477.69;2202987;81;21576;-83
2021/05/05 05:21:10;;;;;;;3.75;3.47;;;;;;;16.47;55.03;97477.19;2202716;81;21283;-83
2021/05/05 05:24:12;;;;;;;5.20;3.30;;;;;;;16.58;54.77;97477.56;2203099;81;21134;-84
2021/05/05 05:27:14;;;;;;;4.87;2.98;;;;;;;16.64;54.57;97479.73;2202744;81;21316;-84
2021/05/05 05:30:16;;;;;;;4.80;2.98;;;;;;;16.98;54.53;97485.66;2203020;81;21295;-84
2021/05/05 05:33:18;;;;;;;3.62;2.75;;;;;;;17.40;53.37;97480.48;2202111;81;21317;-84
2021/05/05 05:36:20;;;;;;;4.40;2.60;;;;;;;17.52;52.68;97486.39;2161199;82;21113;-84
2021/05/05 05:39:22;;;;;;;3.65;3.35;;;;;;;17.41;51.68;97490.55;2201057;81;21156;-84
2021/05/05 05:42:24;;;;;;;3.42;3.12;;;;;;;17.25;51.66;97489.61;2200930;81;21302;-83
2021/05/05 05:45:26;;;;;;;8.05;3.47;;;;;;;17.24;51.93;97491.45;2200815;81;21730;-84
2021/05/05 05:48:28;;;;;;;5.75;4.33;;;;;;;17.39;51.58;97484.71;2200704;80;21147;-84
2021/05/05 05:51:29;;;;;;;3.90;2.70;;;;;;;17.78;51.24;97490.57;2200850;81;21155;-83
2021/05/05 05:54:31;;;;;;;5.17;3.45;;;;;;;18.27;50.09;97485.00;2200620;81;21611;-83
2021/05/05 05:57:33;;;;;;;4.20;3.15;;;;;;;18.67;49.93;97489.70;2201184;81;21317;-83
2021/05/05 06:00:34;;;;;;;3.55;3.00;;;;;;;19.15;49.67;97490.32;2200810;81;21390;-85
2021/05/05 06:03:36;;;;;;;4.85;3.50;;;;;;;19.36;48.22;97495.89;2200884;80;21164;-85
2021/05/05 06:06:38;;;;;;;5.08;4.22;;;;;;;19.36;48.52;97497.22;2201200;80;21270;-85
2021/05/05 06:09:40;;;;;;;6.08;4.47;;;;;;;19.43;47.62;97491.66;2200864;80;21285;-84
2021/05/05 06:12:42;;;;;;;4.12;3.72;;;;;;;19.40;47.59;97490.34;2201227;81;21309;-83
2021/05/05 06:15:44;;;;;;;4.25;3.85;;;;;;;19.38;46.73;97489.78;2200965;80;21710;-84
2021/05/05 06:18:46;;;;;;;3.92;3.62;;;;;;;19.62;46.53;97482.65;2200886;80;21308;-83
2021/05/05 06:21:48;;;;;;;7.42;5.05;;;;;;;19.79;46.00;97481.30;2201132;81;21322;-89
2021/05/05 06:24:50;;;;;;;5.58;4.22;;;;;;;19.75;45.92;97464.33;2201198;80;21297;-86
2021/05/05 06:27:52;;;;;;;4.35;3.80;;;;;;;19.57;45.70;97463.55;2200957;80;21347;-85
2021/05/05 06:30:54;;;;;;;4.33;3.55;;;;;;;19.43;45.58;97458.48;2200822;81;21164;-86
2021/05/05 06:33:56;;;;;;;5.80;4.00;;;;;;;19.25;45.49;97462.46;2194287;81;21793;-85
2021/05/05 06:36:58;;;;;;;6.60;4.15;;;;;;;19.08;45.93;97456.62;2188724;81;21159;-85
2021/05/05 06:40:01;;;;;;;7.62;4.25;;;;;;;18.95;45.53;97469.87;2188517;81;21321;-85
2021/05/05 06:43:03;;;;;;;6.78;4.33;;;;;;;18.83;45.51;97454.19;2188535;81;21777;-87
2021/05/05 06:46:04;;;;;;;5.83;5.05;;;;;;;18.79;45.79;97444.38;2188847;80;21306;-86
2021/05/05 06:49:06;;;;;;;5.58;4.87;;;;;;;18.78;46.57;97446.77;2190109;81;21302;-86
2021/05/05 06:52:08;;;;;;;16.05;4.85;;;;;;;18.88;46.41;97433.53;2189010;81;21235;-87
2021/05/05 06:55:10;;;;;;;4.20;3.27;;;;;;;18.89;46.68;97441.74;2188991;80;21286;-86
2021/05/05 06:58:12;;;;;;;6.37;3.05;;;;;;;18.96;46.03;97433.01;2188860;80;21286;-86
2021/05/05 07:01:14;;;;;;;3.08;2.58;;;;;;;19.12;45.72;97425.86;2189290;81;21299;-85
2021/05/05 07:04:16;;;;;;;4.03;3.22;;;;;;;19.28;45.96;97432.20;2190628;81;21274;-88
2021/05/05 07:07:18;;;;;;;5.12;2.80;;;;;;;19.50;44.78;97429.81;2189336;81;21714;-88
2021/05/05 07:10:20;;;;;;;3.15;2.85;;;;;;;19.69;44.75;97418.92;2178522;81;21279;-90
2021/05/05 07:13:22;;;;;;;2.85;2.65;;;;;;;19.83;43.65;97419.13;2188749;81;21144;-90
2021/05/05 07:16:23;;;;;;;4.58;2.92;;;;;;;19.87;43.69;97419.67;2188985;80;21144;-89
2021/05/05 07:19:26;;;;;;;2.87;2.67;;;;;;;19.95;43.50;97410.89;2188710;80;21132;-89
2021/05/05 07:22:27;;;;;;;3.70;2.60;;;;;;;20.07;43.40;97411.36;2188978;80;21131;-90
2021/05/05 07:25:30;;;;;;;4.12;3.22;;;;;;;20.16;43.41;97414.51;2189013;81;21294;-89
2021/05/05 07:28:32;;;;;;;4.40;2.65;;;;;;;20.28;43.72;97404.88;2188679;80;21287;-89
2021/05/05 07:31:33;;;;;;;3.98;3.30;;;;;;;20.43;42.98;97410.16;2188692;81;21286;-90
2021/05/05 07:34:38;;;;;;;5.67;3.20;;;;;;;20.48;42.81;97409.32;2194675;81;21306;-91
2021/05/05 07:38:07;;;;;;;3.90;2.83;;;;;;;20.57;42.20;97408.20;2198265;81;21179;-89
2021/05/05 07:47:34;;;;;;;5.08;2.80;;;;;;;20.40;41.72;97398.73;2198198;80;21294;-90
2021/05/05 07:50:34;;;;;;;4.28;2.80;;;;;;;20.40;41.78;97392.61;2197960;80;21299;-90
2021/05/05 07:53:38;;;;;;;3.92;2.70;;;;;;;20.36;42.06;97398.20;2197910;81;21304;-90
2021/05/05 07:56:40;;;;;;;3.62;3.33;;;;;;;20.31;41.17;97397.71;2197898;81;21282;-90
2021/05/05 07:59:41;;;;;;;5.08;3.20;;;;;;;20.17;41.38;97398.83;2198431;80;21336;-90
2021/05/05 08:02:44;;;;;;;8.50;3.62;;;;;;;20.24;41.51;97402.52;2198002;81;21266;-90
2021/05/05 08:05:46;;;;;;;5.35;3.08;;;;;;;20.38;41.47;97402.70;2198127;81;21718;-88
2021/05/05 08:08:47;;;;;;;3.75;2.80;;;;;;;20.47;41.26;97402.95;2199872;80;21271;-86
2021/05/05 08:11:49;;;;;;;5.40;2.77;;;;;;;20.51;40.59;97396.03;2199847;81;21302;-89
2021/05/05 08:14:51;;;;;;;6.05;2.90;;;;;;;20.42;40.86;97393.92;2198334;80;21187;-88
2021/05/05 08:17:53;;;;;;;4.00;2.92;;;;;;;20.26;40.99;97395.06;2198204;80;21175;-90
2021/05/05 08:20:54;;;;;;;3.35;2.52;;;;;;;20.15;41.10;97392.20;2197824;81;21164;-88
2021/05/05 08:23:57;;;;;;;3.45;2.08;;;;;;;20.06;41.28;97402.60;2199194;80;21278;-89
2021/05/05 08:26:59;;;;;;;2.17;2.08;;;;;;;20.00;40.94;97397.03;2197911;81;21282;-87
2021/05/05 08:30:01;;;;;;;3.33;2.20;;;;;;;19.95;41.06;97398.94;2197952;81;21345;-85
2021/05/05 08:33:03;;;;;;;2.58;2.37;;;;;;;19.87;41.58;97391.78;2197908;81;21739;-86
2021/05/05 08:36:05;;;;;;;3.10;2.90;;;;;;;20.02;41.57;97383.47;2198674;81;21279;-89
2021/05/05 08:39:07;;;;;;;8.15;3.90;;;;;;;20.22;41.22;97379.95;2197891;81;21171;-87
2021/05/05 08:42:09;;;;;;;8.90;3.17;;;;;;;20.36;40.89;97378.27;2197722;81;21322;-83
2021/05/05 08:45:11;;;;;;;4.50;3.20;;;;;;;20.53;40.86;97377.94;2197781;81;21303;-89
2021/05/05 08:48:14;;;;;;;7.42;2.83;;;;;;;20.84;41.65;97375.85;2198824;81;21140;-86
2021/05/05 08:51:15;;;;;;;3.22;2.95;;;;;;;21.34;40.84;97365.89;2197583;81;21709;-87
2021/05/05 08:54:17;;;;;;;2.20;1.92;;;;;;;21.71;39.68;97366.02;2197760;80;21711;-88
2021/05/05 08:57:21;;;;;;;8.10;4.03;;;;;;;21.92;39.46;97364.45;2198037;81;21179;-85
2021/05/05 09:00:22;;;;;;;6.50;3.35;;;;;;;21.98;38.69;97365.44;2198550;81;21754;-89
2021/05/05 09:03:25;;;;;;;13.75;4.72;;;;;;;21.91;37.96;97366.86;2197319;81;21121;-88
2021/05/05 09:06:27;;;;;;;4.15;2.50;;;;;;;21.75;38.36;97370.23;2197435;80;21151;-88
2021/05/05 09:09:29;;;;;;;4.67;2.67;;;;;;;21.41;37.90;97369.81;2197784;81;21306;-87
2021/05/05 09:12:32;;;;;;;3.08;2.50;;;;;;;20.95;38.24;97364.87;2197503;81;21181;-85
2021/05/05 09:15:33;;;;;;;2.33;2.12;;;;;;;20.59;38.71;97364.87;2198735;81;21246;-87
2021/05/05 09:18:35;;;;;;;2.30;2.17;;;;;;;20.17;39.18;97371.46;2198778;80;21798;-84
2021/05/05 09:21:37;;;;;;;3.75;2.35;;;;;;;19.76;39.38;97370.31;2197958;81;21302;-88
2021/05/05 09:24:39;;;;;;;2.10;1.90;;;;;;;19.35;40.15;97370.11;2197708;81;21754;-85
2021/05/05 09:27:41;;;;;;;5.03;2.60;;;;;;;19.09;40.49;97373.31;2198001;80;21306;-90
2021/05/05 09:30:42;;;;;;;3.40;2.70;;;;;;;18.77;40.87;97367.77;2197847;80;21278;-90
2021/05/05 09:33:48;;;;;;;4.45;2.58;;;;;;;18.58;40.89;97361.36;2196101;80;21329;-89
2021/05/05 09:36:48;;;;;;;5.33;2.98;;;;;;;18.53;41.83;97351.53;2188759;81;21132;-90
2021/05/05 09:39:49;;;;;;;3.75;2.65;;;;;;;18.49;41.42;97355.78;2188809;80;21274;-90
2021/05/05 09:42:54;;;;;;;3.40;2.17;;;;;;;18.37;41.97;97361.30;2189035;81;21293;-89
2021/05/05 09:45:58;;;;;;;2.90;2.70;;;;;;;18.34;42.60;97355.73;2189258;81;21187;-89
2021/05/05 09:49:00;;;;;;;4.90;3.67;;;;;;;18.26;42.55;97352.27;2188965;80;21305;-90
2021/05/05 09:52:02;;;;;;;4.25;3.42;;;;;;;18.18;42.63;97349.60;2188966;80;21591;-89
2021/05/05 09:55:06;;;;;;;5.17;2.85;;;;;;;18.14;42.93;97349.87;2188633;81;21290;-90
2021/05/05 09:58:07;;;;;;;4.15;3.42;;;;;;;18.21;43.17;97342.48;2188737;81;21266;-89
2021/05/05 10:01:10;;;;;;;4.70;3.17;;;;;;;18.33;43.30;97344.88;2189136;81;21144;-87
2021/05/05 10:04:12;;;;;;;4.15;3.50;;;;;;;18.39;43.48;97345.95;2188681;80;21314;-87
2021/05/05 10:07:13;;;;;;;3.05;2.85;;;;;;;18.36;43.25;97339.05;2188242;81;21164;-85
2021/05/05 10:10:16;;;;;;;4.97;2.92;;;;;;;18.47;43.34;97344.65;2188682;81;21770;-87
2021/05/05 10:13:17;;;;;;;3.05;2.83;;;;;;;18.52;43.31;97342.52;2188941;81;21172;-87
2021/05/05 10:16:19;;;;;;;3.17;2.87;;;;;;;18.58;43.45;97348.10;2189434;81;21189;-89
2021/05/05 10:19:23;;;;;;;3.52;3.22;;;;;;;18.40;43.54;97344.89;2188704;81;21607;-88
2021/05/05 10:22:24;;;;;;;3.42;3.12;;;;;;;18.20;43.71;97338.23;2189984;81;21294;-85
2021/05/05 10:25:26;;;;;;;6.33;3.50;;;;;;;17.97;43.95;97334.72;2190139;81;21302;-86
2021/05/05 10:28:28;;;;;;;4.20;3.08;;;;;;;17.87;44.10;97338.92;2188767;80;21188;-86
2021/05/05 10:31:30;;;;;;;3.95;3.55;;;;;;;17.86;44.32;97346.59;2188989;81;21278;-87
2021/05/05 10:34:32;;;;;;;5.30;3.42;;;;;;;17.76;44.75;97335.97;2191049;80;21305;-83
2021/05/05 10:37:34;;;;;;;4.05;3.42;;;;;;;17.65;44.51;97344.90;2191200;81;21251;-83
2021/05/05 10:40:36;;;;;;;4.97;3.10;;;;;;;17.58;45.23;97339.83;2191486;80;21137;-83
2021/05/05 10:43:39;;;;;;;3.83;3.47;;;;;;;17.53;45.21;97344.28;2191615;80;21169;-83
2021/05/05 10:46:42;;;;;;;3.47;3.15;;;;;;;17.46;45.53;97337.09;2191725;80;21310;-83
2021/05/05 10:49:44;;;;;;;5.00;3.37;;;;;;;17.34;45.58;97351.33;2191477;81;21267;-83
2021/05/05 10:52:46;;;;;;;5.72;3.52;;;;;;;17.17;46.13;97347.25;2191407;81;21278;-83
2021/05/05 10:55:48;;;;;;;5.08;4.05;;;;;;;17.07;46.54;97347.98;2190877;81;21704;-83
2021/05/05 10:58:50;;;;;;;5.22;3.50;;;;;;;17.03;46.82;97358.28;2190870;80;21139;-82
2021/05/05 11:01:53;;;;;;;4.30;3.70;;;;;;;16.94;47.08;97363.76;2189286;81;21287;-88
2021/05/05 11:04:54;;;;;;;4.80;3.40;;;;;;;16.82;47.08;97368.40;2188980;80;21742;-89
2021/05/05 11:07:57;;;;;;;5.50;3.42;;;;;;;16.68;47.29;97369.84;2188834;81;21603;-89
2021/05/05 11:10:59;;;;;;;6.78;4.47;;;;;;;16.60;48.07;97384.31;2151366;83;21794;-87
2021/05/05 11:14:01;;;;;;;7.08;4.55;;;;;;;16.55;48.55;97386.92;2152437;82;21318;-86
2021/05/05 11:17:05;;;;;;;5.25;4.10;;;;;;;16.61;50.09;97400.95;2152662;83;21129;-87
2021/05/05 11:20:07;;;;;;;4.42;4.03;;;;;;;16.70;50.29;97412.18;2151270;83;21766;-90
2021/05/05 11:23:08;;;;;;;5.33;4.53;;;;;;;16.56;50.97;97418.09;2151627;83;21786;-88
2021/05/05 11:26:10;;;;;;;6.53;5.12;;;;;;;16.29;53.01;97416.23;2152539;82;21314;-85
2021/05/05 11:29:12;;;;;;;6.42;5.15;;;;;;;16.00;53.71;97416.95;2152241;82;21191;-88
2021/05/05 11:32:15;;;;;;;6.22;4.65;;;;;;;15.98;53.99;97420.33;2153187;83;21857;-85
2021/05/05 11:35:17;;;;;;;7.72;4.37;;;;;;;15.93;54.09;97440.08;2152266;81;21754;-89
2021/05/05 11:38:20;;;;;;;10.18;4.33;;;;;;;16.03;54.29;97441.53;2141274;83;21321;-88
2021/05/05 11:41:22;;;;;;;6.85;4.33;;;;;;;15.99;54.32;97440.92;2152539;82;21116;-89
2021/05/05 11:44:24;;;;;;;4.33;3.02;;;;;;;15.90;55.05;97451.91;2151942;82;21156;-90
2021/05/05 11:47:26;;;;;;;2.90;2.67;;;;;;;15.50;56.02;97461.34;2152098;83;21299;-86
2021/05/05 11:50:29;;;;;;;4.22;2.70;;;;;;;14.99;55.97;97457.08;2152989;83;21337;-85
2021/05/05 11:53:32;;;;;;;4.92;2.67;;;;;;;14.71;56.85;97457.39;2153537;83;21148;-88
2021/05/05 11:56:37;;;;;;;2.22;2.02;;;;;;;14.73;56.73;97457.18;2153472;83;21295;-87
2021/05/05 11:59:40;;;;;;;2.27;1.50;;;;;;;14.60;57.83;97467.98;2153182;83;21140;-88
2021/05/05 12:02:42;;;;;;;1.55;1.45;;;;;;;14.24;58.22;97469.89;2153725;83;21172;-85
2021/05/05 12:05:45;;;;;;;1.87;1.70;;;;;;;13.77;59.42;97477.86;2153683;83;21275;-88
2021/05/05 12:08:47;;;;;;;4.33;2.42;;;;;;;13.31;59.94;97488.64;2154098;82;21171;-85
2021/05/05 12:11:49;;;;;;;2.33;2.12;;;;;;;13.12;60.06;97479.20;2153842;83;21191;-84
2021/05/05 12:14:51;;;;;;;2.60;1.72;;;;;;;13.07;60.60;97489.58;2151554;83;21322;-86
2021/05/05 12:18:02;;;;;;;2.12;1.60;;;;;;;13.02;60.54;97488.95;2150765;83;21302;-89
2021/05/05 12:20:57;;;;;;;1.87;1.27;;;;;;;13.06;60.91;97480.89;2152676;82;21325;-84
2021/05/05 12:24:00;;;;;;;1.90;1.20;;;;;;;13.34;59.09;97492.63;2153923;83;21303;-84
2021/05/05 12:27:01;;;;;;;3.33;1.35;;;;;;;13.34;59.09;97492.63;2153647;83;21323;-87
2021/05/05 12:30:03;;;;;;;3.35;1.65;;;;;;;13.30;58.59;97488.35;2153679;82;21282;-84
2021/05/05 12:33:06;;;;;;;2.85;1.47;;;;;;;13.37;59.67;97487.73;2154036;82;21164;-85
2021/05/05 12:36:07;;;;;;;1.60;1.02;;;;;;;13.23;58.80;97496.05;2153976;82;21282;-84
2021/05/05 12:39:11;;;;;;;1.47;1.25;;;;;;;12.91;60.95;97504.69;2154056;82;21167;-84
2021/05/05 12:42:14;;;;;;;2.72;0.88;;;;;;;12.91;60.95;97504.69;2153954;83;21287;-84
2021/05/05 12:45:18;;;;;;;2.35;1.00;;;;;;;12.67;59.85;97499.84;2153941;82;21722;-84
2021/05/05 12:48:21;;;;;;;0.95;0.95;;;;;;;12.39;60.66;97526.13;2154024;82;21164;-84
2021/05/05 12:51:24;;;;;;;1.60;1.35;;;;;;;12.16;61.24;97516.30;2152706;82;21290;-87
2021/05/05 12:54:27;;;;;;;3.70;1.72;;;;;;;12.18;62.50;97513.45;2151710;82;21160;-84
2021/05/05 12:57:30;;;;;;;0.95;0.93;;;;;;;12.16;62.56;97518.09;2153993;83;21616;-84
2021/05/05 13:00:33;;;;;;;1.90;1.60;;;;;;;12.11;63.63;97531.09;2153987;82;21306;-83
2021/05/05 13:03:34;;;;;;;3.08;2.20;;;;;;;11.99;63.55;97524.96;2153204;83;21330;-88
2021/05/05 13:06:36;;;;;;;1.72;1.52;;;;;;;11.90;63.85;97538.86;2151943;82;21694;-83
2021/05/05 13:13:03;;;;;;;1.67;0.90;;;;;;;11.68;66.12;97550.20;2152470;83;21151;-83
2021/05/05 13:16:18;;;;;;;1.27;1.00;;;;;;;11.51;66.59;97550.44;2154013;83;21129;-83
2021/05/05 13:43:51;;;;;;;1.52;1.40;;;;;;;11.18;69.04;97531.03;2292660;77;21693;-88
2021/05/05 13:50:29;;;;;;;58.30;19.70;;;;;;;11.37;69.64;97520.41;2211566;79;22682;-88
2021/05/05 13:53:32;;;;;;;48.80;18.77;;;;;;;11.43;69.98;97524.48;2177865;82;21277;-89
2021/05/05 13:56:34;;;;;;;51.20;19.80;;;;;;;11.47;70.08;97520.44;2178134;82;21149;-88
2021/05/05 13:59:38;;;;;;;27.95;10.00;;;;;;;11.55;70.51;97509.69;2177953;82;21461;-88
2021/05/05 14:02:40;;;;;;;9.53;3.90;;;;;;;11.68;70.28;97497.77;2177955;82;21599;-89
2021/05/05 14:05:47;;;;;;;6.08;3.22;;;;;;;11.80;70.99;97486.91;2177984;82;21147;-88
2021/05/05 14:08:52;;;;;;;2.37;1.60;;;;;;;12.03;71.04;97468.41;2177894;82;21156;-89
2021/05/05 14:11:54;;;;;;;2.30;1.47;;;;;;;12.26;70.41;97469.86;2177803;82;21619;-89
2021/05/05 14:14:56;;;;;;;16.93;6.87;;;;;;;12.30;70.56;97476.78;2177965;82;21138;-89
2021/05/05 14:18:00;;;;;;;4.97;2.92;;;;;;;12.33;70.59;97469.77;2178471;82;21148;-88
2021/05/05 14:21:07;;;;;;;4.85;2.87;;;;;;;12.28;70.45;97479.63;2178039;82;21147;-89
2021/05/05 14:24:07;;;;;;;2.60;2.20;;;;;;;12.19;70.48;97455.50;2178172;82;21112;-89
2021/05/05 14:27:09;;;;;;;1.67;1.52;;;;;;;12.21;70.61;97437.70;2179251;82;21139;-87
2021/05/05 14:30:11;;;;;;;5.05;3.45;;;;;;;12.18;70.68;97452.59;2178769;82;21182;-87
2021/05/05 14:33:13;;;;;;;38.25;21.37;;;;;;;12.15;71.21;97464.02;2178079;82;21309;-89
2021/05/05 14:36:16;;;;;;;25.23;13.43;;;;;;;11.98;70.92;97490.06;2176760;82;22169;-88
2021/05/05 14:39:21;;;;;;;31.57;16.27;;;;;;;11.85;71.72;97490.17;2178437;81;21290;-87
2021/05/05 14:42:28;;;;;;;36.68;17.05;;;;;;;11.75;72.21;97493.78;2178970;82;21254;-84
2021/05/05 14:45:46;;;;;;;48.42;18.15;;;;;;;11.68;71.81;97493.83;2179968;82;21290;-83
2021/05/05 14:48:46;;;;;;;27.65;11.97;;;;;;;11.64;72.36;97481.67;2179862;81;21199;-84
2021/05/05 14:51:51;;;;;;;28.30;11.30;;;;;;;11.60;71.89;97480.48;2153947;82;21584;-87
2021/05/05 14:54:53;;;;;;;16.35;7.33;;;;;;;11.56;72.29;97485.08;2180687;82;21147;-82
2021/05/05 14:57:59;;;;;;;4.28;2.60;;;;;;;11.42;72.64;97486.98;2180803;81;21175;-83